Time;durP1;ratioP1;P1;durP2;ratioP2;P2;SDS_P1;SDS_P2;PMS_P1;PMS_P2;Temp;Humidity;BMP_temperature;BMP_pressure;BME280_temperature;BME280_humidity;BME280_pressure;Samples;Min_cycle;Max_cycle;Signal;HPM_P1;HPM_P2
2023/10/04 00:01:14;;;;;;;7.95;1.40;;;14.80;99.90;;;;;;5052750;28;20048;-41
2023/10/04 00:03:39;;;;;;;3.45;1.35;;;14.80;99.90;;;;;;5052730;28;20044;-43
2023/10/04 00:06:05;;;;;;;3.10;0.88;;;14.80;99.90;;;;;;5052426;28;20052;-40
2023/10/04 00:08:31;;;;;;;2.45;1.13;;;14.70;99.90;;;;;;5061236;28;20069;-43
2023/10/04 00:10:56;;;;;;;5.47;1.45;;;14.70;99.90;;;;;;5062505;28;20028;-42
2023/10/04 00:13:22;;;;;;;6.10;1.88;;;14.70;99.90;;;;;;5058168;28;20029;-51
2023/10/04 00:15:48;;;;;;;4.85;1.20;;;14.80;99.90;;;;;;5052206;28;20053;-54
2023/10/04 00:18:15;;;;;;;5.15;0.93;;;14.70;99.90;;;;;;5052272;28;20500;-54
2023/10/04 00:20:43;;;;;;;8.50;1.33;;;14.70;99.90;;;;;;5051669;28;20013;-54
2023/10/04 00:23:09;;;;;;;6.88;1.40;;;14.70;99.90;;;;;;5071219;28;20039;-54
2023/10/04 00:25:36;;;;;;;4.93;1.17;;;14.70;99.90;;;;;;5072155;28;20504;-53
2023/10/04 00:28:02;;;;;;;4.20;1.33;;;14.60;99.90;;;;;;5072528;28;20114;-54
2023/10/04 00:30:29;;;;;;;3.47;0.97;;;14.60;99.90;;;;;;5057535;28;20025;-53
2023/10/04 00:32:57;;;;;;;3.72;0.98;;;14.60;99.90;;;;;;5052406;28;20411;-52
2023/10/04 00:35:23;;;;;;;2.65;0.95;;;14.50;99.90;;;;;;5052435;28;20086;-54
2023/10/04 00:37:56;;;;;;;6.10;1.63;;;14.50;99.90;;;;;;5053669;28;20018;-53
2023/10/04 00:40:27;;;;;;;3.17;1.25;;;14.50;99.90;;;;;;5072139;28;20031;-54
2023/10/04 00:42:56;;;;;;;3.13;1.23;;;14.50;99.90;;;;;;5072101;28;20548;-54
2023/10/04 00:45:22;;;;;;;5.00;1.48;;;14.50;99.90;;;;;;5073156;28;20024;-54
2023/10/04 00:47:52;;;;;;;5.53;1.02;;;14.50;99.90;;;;;;5073589;28;20028;-55
2023/10/04 00:50:22;;;;;;;5.10;1.23;;;14.50;99.90;;;;;;5075565;28;20111;-54
2023/10/04 00:52:52;;;;;;;5.00;1.23;;;14.50;99.90;;;;;;5074853;28;20028;-53
2023/10/04 00:55:22;;;;;;;4.93;1.15;;;14.60;99.90;;;;;;5075765;28;20549;-54
2023/10/04 00:57:51;;;;;;;5.00;1.17;;;14.50;99.90;;;;;;5063578;28;20030;-52
2023/10/04 01:00:17;;;;;;;3.42;1.08;;;14.50;99.90;;;;;;5075403;28;20025;-54
2023/10/04 01:02:44;;;;;;;3.58;1.00;;;14.50;99.90;;;;;;5074497;28;20370;-40
2023/10/04 01:05:12;;;;;;;5.50;1.30;;;14.60;99.90;;;;;;5054074;28;20029;-40
2023/10/04 01:07:39;;;;;;;4.32;1.50;;;14.60;99.90;;;;;;5057521;28;20032;-41
2023/10/04 01:10:15;;;;;;;2.25;1.10;;;14.60;99.90;;;;;;5074958;28;20032;-43
2023/10/04 01:12:45;;;;;;;11.13;1.70;;;14.60;99.90;;;;;;5075125;28;20390;-42
2023/10/04 01:18:04;;;;;;;8.30;1.83;;;14.60;99.90;;;;;;5074171;28;20496;-45
2023/10/04 01:20:30;;;;;;;4.57;1.98;;;14.60;99.90;;;;;;5068320;28;20155;-43
2023/10/04 01:23:04;;;;;;;3.35;1.45;;;14.60;99.90;;;;;;5073270;28;20481;-41
2023/10/04 01:25:34;;;;;;;3.42;1.25;;;14.60;99.90;;;;;;5074896;28;20025;-43
2023/10/04 01:28:01;;;;;;;3.75;0.98;;;14.60;99.90;;;;;;5074916;28;20032;-42
2023/10/04 01:30:31;;;;;;;12.02;1.38;;;14.60;99.90;;;;;;5075147;28;20441;-40
2023/10/04 01:33:00;;;;;;;11.23;1.33;;;14.60;99.90;;;;;;5060091;28;20021;-42
2023/10/04 01:35:27;;;;;;;6.22;1.40;;;14.60;99.90;;;;;;5070491;28;20021;-46
2023/10/04 01:37:53;;;;;;;6.00;1.40;;;14.60;99.90;;;;;;5073291;28;20029;-44
2023/10/04 01:40:22;;;;;;;5.30;1.13;;;14.60;99.90;;;;;;5074683;28;20033;-41
2023/10/04 01:42:48;;;;;;;5.50;1.05;;;14.60;99.90;;;;;;5074392;28;20029;-45
2023/10/04 01:45:18;;;;;;;4.25;1.58;;;14.60;99.90;;;;;;5074595;28;20077;-54
2023/10/04 01:47:44;;;;;;;6.38;1.25;;;14.60;99.90;;;;;;5073101;28;20028;-52
2023/10/04 01:50:10;;;;;;;5.78;1.45;;;14.60;99.90;;;;;;5074138;28;20362;-53
2023/10/04 01:52:39;;;;;;;7.38;1.23;;;14.60;99.90;;;;;;5073237;28;20389;-52
2023/10/04 01:55:06;;;;;;;6.22;1.45;;;14.60;99.90;;;;;;5074428;28;20374;-51
2023/10/04 01:57:34;;;;;;;6.82;1.10;;;14.60;99.90;;;;;;5074459;28;20024;-52
2023/10/04 02:00:01;;;;;;;3.95;1.10;;;14.60;99.90;;;;;;5074096;28;20481;-53
2023/10/04 02:02:27;;;;;;;2.22;1.00;;;14.60;99.90;;;;;;5074095;28;20024;-52
2023/10/04 02:04:53;;;;;;;4.25;1.17;;;14.60;99.90;;;;;;5073693;28;20031;-53
2023/10/04 02:07:23;;;;;;;4.00;1.10;;;14.60;99.90;;;;;;5072867;28;20499;-53
2023/10/04 02:09:51;;;;;;;4.18;1.40;;;14.60;99.90;;;;;;5067157;28;20035;-52
2023/10/04 02:12:18;;;;;;;3.55;1.30;;;14.60;99.90;;;;;;5073953;28;20027;-54
2023/10/04 02:14:46;;;;;;;3.78;0.95;;;14.60;99.90;;;;;;5072733;28;20048;-52
2023/10/04 02:17:16;;;;;;;2.53;0.90;;;14.60;99.90;;;;;;5074152;28;20082;-54
2023/10/04 02:19:41;;;;;;;6.20;1.92;;;14.60;99.90;;;;;;5074150;28;20032;-54
2023/10/04 02:22:08;;;;;;;10.82;1.33;;;14.50;99.90;;;;;;5073442;28;20021;-53
2023/10/04 02:24:34;;;;;;;6.38;1.50;;;14.40;99.90;;;;;;5072757;28;20492;-52
2023/10/04 02:27:01;;;;;;;3.90;1.45;;;14.40;99.90;;;;;;5073510;28;20021;-52
2023/10/04 02:29:27;;;;;;;2.38;1.23;;;14.40;99.90;;;;;;5073984;28;20029;-52
2023/10/04 02:31:53;;;;;;;3.95;1.60;;;14.40;99.90;;;;;;5073134;28;20054;-52
2023/10/04 02:34:20;;;;;;;8.38;1.88;;;14.30;99.90;;;;;;5073402;28;20025;-49
2023/10/04 02:36:48;;;;;;;6.32;1.67;;;14.30;99.90;;;;;;5073494;28;20024;-54
2023/10/04 02:39:13;;;;;;;;;;;14.30;99.90;;;;;;5073228;28;20103;-53
2023/10/04 02:41:41;;;;;;;4.00;0.88;;;14.20;99.90;;;;;;5072935;28;20356;-54
2023/10/04 02:44:08;;;;;;;4.10;1.50;;;14.20;99.90;;;;;;5072851;28;20419;-53
2023/10/04 02:46:34;;;;;;;4.38;1.13;;;14.20;99.90;;;;;;5072084;28;20024;-54
2023/10/04 02:49:01;;;;;;;7.10;1.38;;;14.10;99.90;;;;;;5073273;28;20111;-53
2023/10/04 02:51:26;;;;;;;5.43;1.50;;;14.10;99.90;;;;;;5072964;28;20024;-53
2023/10/04 02:53:52;;;;;;;5.63;1.30;;;14.10;99.90;;;;;;5072199;28;20470;-51
2023/10/04 02:56:17;;;;;;;3.80;1.20;;;14.10;99.90;;;;;;5069749;28;20033;-53
2023/10/04 02:58:43;;;;;;;6.00;1.52;;;14.10;99.90;;;;;;5053227;28;20474;-53
2023/10/04 03:01:18;;;;;;;4.50;1.20;;;14.10;99.90;;;;;;5062340;28;20012;-54
2023/10/04 03:03:44;;;;;;;3.17;1.00;;;14.10;99.90;;;;;;5072026;28;20472;-53
2023/10/04 03:06:11;;;;;;;9.13;1.40;;;14.10;99.90;;;;;;5071415;28;20591;-53
2023/10/04 03:08:37;;;;;;;5.88;1.25;;;14.10;99.90;;;;;;5071416;28;20024;-50
2023/10/04 03:11:03;;;;;;;6.18;1.50;;;14.00;99.90;;;;;;5073254;28;20028;-53
2023/10/04 03:13:32;;;;;;;4.47;1.00;;;14.00;99.90;;;;;;5072618;28;20445;-54
2023/10/04 03:15:58;;;;;;;5.13;1.63;;;14.00;99.90;;;;;;5071755;28;20048;-52
2023/10/04 03:18:25;;;;;;;5.55;1.60;;;14.00;99.90;;;;;;5072973;28;20023;-53
2023/10/04 03:23:40;;;;;;;4.97;1.52;;;13.90;99.90;;;;;;5072342;28;20298;-40
2023/10/04 03:26:06;;;;;;;7.60;1.60;;;13.90;99.90;;;;;;5073076;28;20127;-42
2023/10/04 03:28:33;;;;;;;2.53;1.02;;;13.90;99.90;;;;;;5072842;28;20518;-44
2023/10/04 03:31:03;;;;;;;3.40;1.77;;;13.90;99.90;;;;;;5072528;28;20049;-41
2023/10/04 03:33:33;;;;;;;5.85;1.95;;;13.80;99.90;;;;;;5072931;28;20036;-44
2023/10/04 03:35:59;;;;;;;5.72;1.50;;;13.80;99.90;;;;;;5072414;28;20434;-44
2023/10/04 03:38:25;;;;;;;2.67;1.00;;;13.70;99.90;;;;;;5071071;28;20464;-41
2023/10/04 03:40:55;;;;;;;4.85;1.13;;;13.70;99.90;;;;;;5071362;28;20025;-42
2023/10/04 03:43:20;;;;;;;3.05;1.33;;;13.70;99.90;;;;;;5072951;28;20373;-42
2023/10/04 03:45:46;;;;;;;7.25;1.98;;;13.70;99.90;;;;;;5072672;28;20031;-44
2023/10/04 03:48:15;;;;;;;5.93;1.35;;;13.60;99.90;;;;;;5072237;28;20070;-42
2023/10/04 03:50:51;;;;;;;4.70;1.33;;;13.60;99.90;;;;;;5072906;28;20107;-42
2023/10/04 03:53:21;;;;;;;2.38;1.35;;;13.60;99.90;;;;;;5077206;28;20103;-42
2023/10/04 03:55:47;;;;;;;9.20;1.17;;;13.60;99.90;;;;;;5071754;28;20028;-42
2023/10/04 03:58:19;;;;;;;10.88;1.77;;;13.60;99.90;;;;;;5072215;28;20074;-43
2023/10/04 04:00:45;;;;;;;3.80;1.75;;;13.60;99.90;;;;;;5072558;28;20017;-44
2023/10/04 04:03:11;;;;;;;11.23;1.23;;;13.60;99.90;;;;;;5072088;28;20036;-43
2023/10/04 04:05:42;;;;;;;9.80;1.65;;;13.60;99.90;;;;;;5072429;28;20193;-41
2023/10/04 04:08:12;;;;;;;8.35;1.58;;;13.50;99.90;;;;;;5071377;28;20029;-45
2023/10/04 04:10:38;;;;;;;6.25;1.33;;;13.60;99.90;;;;;;5073002;28;20477;-43
2023/10/04 04:13:05;;;;;;;7.82;1.20;;;13.50;99.90;;;;;;5071856;28;20032;-43
2023/10/04 04:15:34;;;;;;;4.03;1.33;;;13.50;99.90;;;;;;5072194;28;20333;-46
2023/10/04 04:18:03;;;;;;;6.18;1.15;;;13.40;99.90;;;;;;5072357;28;20017;-42
2023/10/04 04:20:31;;;;;;;3.92;1.23;;;13.40;99.90;;;;;;5073976;28;20016;-39
2023/10/04 04:22:57;;;;;;;2.15;1.05;;;13.40;99.90;;;;;;5074829;28;20107;-42
2023/10/04 04:25:24;;;;;;;11.98;1.48;;;13.40;99.90;;;;;;5075939;28;20027;-40
2023/10/04 04:27:51;;;;;;;6.38;1.13;;;13.40;99.90;;;;;;5075965;28;20026;-44
2023/10/04 04:30:19;;;;;;;5.13;1.67;;;13.40;99.90;;;;;;5075125;28;20028;-44
2023/10/04 04:32:52;;;;;;;5.35;1.35;;;13.40;99.90;;;;;;5074301;28;20503;-40
2023/10/04 04:36:09;;;;;;;4.90;1.30;;;13.40;99.90;;;;;;5075899;28;20082;-44
2023/10/04 04:40:36;;;;;;;5.93;1.70;;;13.40;99.90;;;;;;5073960;28;20547;-43
2023/10/04 04:45:56;;;;;;;3.17;1.48;;;13.40;99.90;;;;;;5076115;28;20120;-46
2023/10/04 04:48:24;;;;;;;7.18;1.65;;;13.30;99.90;;;;;;5074219;28;20051;-44
2023/10/04 04:50:52;;;;;;;5.30;1.30;;;13.40;99.90;;;;;;5075392;28;20059;-41
2023/10/04 04:53:20;;;;;;;4.97;1.02;;;13.40;99.90;;;;;;5074354;28;20477;-42
2023/10/04 04:55:46;;;;;;;;;;;13.40;99.90;;;;;;5075990;28;20044;-41
2023/10/04 04:58:14;;;;;;;6.93;1.30;;;13.40;99.90;;;;;;5075441;28;19970;-39
2023/10/04 05:00:44;;;;;;;3.40;1.08;;;13.40;99.90;;;;;;5075327;28;20352;-40
2023/10/04 05:03:11;;;;;;;3.83;1.88;;;13.40;99.90;;;;;;5074825;28;20046;-40
2023/10/04 05:05:38;;;;;;;8.55;1.40;;;13.40;99.90;;;;;;5074983;28;20048;-41
2023/10/04 05:08:04;;;;;;;5.30;1.40;;;13.40;99.90;;;;;;5074336;28;20063;-42
2023/10/04 05:10:38;;;;;;;8.82;1.40;;;13.40;99.90;;;;;;5074979;28;20446;-41
2023/10/04 05:13:07;;;;;;;5.10;1.20;;;13.40;99.90;;;;;;5073936;28;20029;-43
2023/10/04 05:15:38;;;;;;;7.22;2.05;;;13.40;99.90;;;;;;5074660;28;20106;-44
2023/10/04 05:18:05;;;;;;;4.38;1.48;;;13.40;99.90;;;;;;5075503;28;20023;-41
2023/10/04 05:20:32;;;;;;;11.45;1.20;;;13.40;99.90;;;;;;5074743;28;20048;-41
2023/10/04 05:22:59;;;;;;;6.47;2.15;;;13.40;99.90;;;;;;5074126;28;20090;-43
2023/10/04 05:25:27;;;;;;;4.32;1.73;;;13.40;99.90;;;;;;5075025;28;20032;-42
2023/10/04 05:28:00;;;;;;;6.85;1.52;;;13.30;99.90;;;;;;5074662;28;20105;-42
2023/10/04 05:30:26;;;;;;;4.07;1.17;;;13.30;99.90;;;;;;5074540;28;20090;-42
2023/10/04 05:32:52;;;;;;;6.57;2.42;;;13.30;99.90;;;;;;5073546;28;20103;-39
2023/10/04 05:35:18;;;;;;;11.05;2.53;;;13.40;99.90;;;;;;5074529;28;20572;-40
2023/10/04 05:37:44;;;;;;;3.72;1.45;;;13.40;99.90;;;;;;5074202;28;20032;-41
2023/10/04 05:40:23;;;;;;;7.07;1.58;;;13.40;99.90;;;;;;5074994;28;20017;-41
2023/10/04 05:42:49;;;;;;;6.60;2.33;;;13.40;99.90;;;;;;5074476;28;20067;-41
2023/10/04 05:45:16;;;;;;;5.47;1.63;;;13.40;99.90;;;;;;5074677;28;20060;-44
2023/10/04 05:47:41;;;;;;;8.15;0.95;;;13.50;99.90;;;;;;5074877;28;20597;-42
2023/10/04 05:50:10;;;;;;;12.85;2.00;;;13.50;99.90;;;;;;5074198;28;20127;-41
2023/10/04 05:52:37;;;;;;;6.30;1.48;;;13.50;99.90;;;;;;5073344;28;20065;-43
2023/10/04 05:55:03;;;;;;;9.87;1.87;;;13.50;99.90;;;;;;5074390;28;20017;-44
2023/10/04 05:57:29;;;;;;;4.00;1.35;;;13.50;99.90;;;;;;5072656;28;20511;-45
2023/10/04 05:59:55;;;;;;;7.18;1.42;;;13.50;99.90;;;;;;5073370;28;20032;-44
2023/10/04 06:02:22;;;;;;;6.05;2.03;;;13.50;99.90;;;;;;5072228;28;20493;-44
2023/10/04 06:04:48;;;;;;;7.32;1.73;;;13.50;99.90;;;;;;5072393;28;20465;-42
2023/10/04 06:07:14;;;;;;;7.25;2.33;;;13.50;99.90;;;;;;5073003;28;20024;-45
2023/10/04 06:09:44;;;;;;;9.90;1.85;;;13.50;99.90;;;;;;5073881;28;20021;-46
2023/10/04 06:12:09;;;;;;;8.77;1.83;;;13.50;99.90;;;;;;5054848;28;20497;-43
2023/10/04 06:14:36;;;;;;;10.20;2.10;;;13.50;99.90;;;;;;5054222;28;20123;-41
2023/10/04 06:17:04;;;;;;;6.17;2.17;;;13.60;99.90;;;;;;5054252;28;20025;-36
2023/10/04 06:19:30;;;;;;;4.80;2.08;;;13.60;99.90;;;;;;5057924;28;20694;-46
2023/10/04 06:21:56;;;;;;;6.13;1.60;;;13.60;99.90;;;;;;5053727;28;20020;-40
2023/10/04 06:24:22;;;;;;;4.03;1.92;;;13.60;99.90;;;;;;5064066;28;20082;-40
2023/10/04 06:26:48;;;;;;;5.93;2.00;;;13.60;99.90;;;;;;5072422;28;20473;-38
2023/10/04 06:29:14;;;;;;;7.13;2.42;;;13.60;99.90;;;;;;5070779;28;20036;-39
2023/10/04 06:31:41;;;;;;;10.13;2.00;;;13.70;99.90;;;;;;5069066;28;20401;-38
2023/10/04 06:34:07;;;;;;;8.77;1.80;;;13.70;99.90;;;;;;5055384;28;20020;-45
2023/10/04 06:36:33;;;;;;;6.53;1.70;;;13.70;99.90;;;;;;5071710;28;20017;-41
2023/10/04 06:38:59;;;;;;;11.15;1.73;;;13.70;99.90;;;;;;5072867;28;20066;-38
2023/10/04 06:41:26;;;;;;;11.32;2.35;;;13.70;99.90;;;;;;5072462;28;20420;-39
2023/10/04 06:43:52;;;;;;;3.05;1.65;;;13.80;99.90;;;;;;5072939;28;20078;-41
2023/10/04 06:46:18;;;;;;;6.82;1.90;;;13.90;99.90;;;;;;5071203;28;20473;-42
2023/10/04 06:48:45;;;;;;;6.82;1.60;;;13.90;99.90;;;;;;5071663;28;20031;-44
2023/10/04 06:51:11;;;;;;;10.52;2.45;;;13.90;99.90;;;;;;5073325;28;20372;-40
2023/10/04 06:53:43;;;;;;;8.45;1.80;;;13.90;99.90;;;;;;5073114;28;20052;-39
2023/10/04 06:56:09;;;;;;;4.07;1.50;;;14.00;99.90;;;;;;5068790;28;20060;-41
2023/10/04 06:58:35;;;;;;;11.18;2.20;;;14.00;99.90;;;;;;5070816;28;20032;-45
2023/10/04 07:01:01;;;;;;;7.45;2.50;;;14.10;99.90;;;;;;5055738;28;20021;-42
2023/10/04 07:03:27;;;;;;;7.90;2.55;;;14.10;99.90;;;;;;5055773;28;20025;-44
2023/10/04 07:05:53;;;;;;;7.13;2.13;;;14.10;99.90;;;;;;5071791;28;20021;-41
2023/10/04 07:08:18;;;;;;;11.77;2.55;;;14.20;99.90;;;;;;5060948;28;20035;-41
2023/10/04 07:10:44;;;;;;;12.85;2.60;;;14.20;99.90;;;;;;5052230;28;20497;-41
2023/10/04 07:13:11;;;;;;;3.13;2.03;;;14.30;99.90;;;;;;5067897;28;20034;-42
2023/10/04 07:15:39;;;;;;;6.25;2.28;;;14.40;99.90;;;;;;5065212;28;20045;-42
2023/10/04 07:18:06;;;;;;;9.95;3.28;;;14.40;99.90;;;;;;5059190;28;20393;-36
2023/10/04 07:20:33;;;;;;;15.80;2.05;;;14.50;99.90;;;;;;5072869;28;20020;-44
2023/10/04 07:22:59;;;;;;;12.10;2.53;;;14.60;99.90;;;;;;5071868;28;20043;-42
2023/10/04 07:25:27;;;;;;;11.10;2.38;;;14.60;99.90;;;;;;5064812;28;20021;-44
2023/10/04 07:27:54;;;;;;;13.23;2.25;;;14.70;99.90;;;;;;5052928;28;20117;-47
2023/10/04 07:30:22;;;;;;;6.78;2.50;;;14.80;99.90;;;;;;5057234;28;20099;-41
2023/10/04 07:32:48;;;;;;;10.15;3.05;;;14.80;99.90;;;;;;5069796;28;20036;-41
2023/10/04 07:35:20;;;;;;;9.13;2.40;;;14.90;99.90;;;;;;5073011;28;20393;-43
2023/10/04 07:37:46;;;;;;;10.00;2.72;;;15.00;99.90;;;;;;5073925;28;20427;-43
2023/10/04 07:40:14;;;;;;;11.93;2.17;;;15.00;99.90;;;;;;5055242;28;20040;-43
2023/10/04 07:42:42;;;;;;;11.52;2.17;;;15.10;99.90;;;;;;5052846;28;20028;-42
2023/10/04 07:45:10;;;;;;;12.07;2.58;;;15.10;99.90;;;;;;5052333;28;20035;-42
2023/10/04 07:47:37;;;;;;;4.22;2.63;;;15.20;99.90;;;;;;5056120;28;20025;-41
2023/10/04 07:50:09;;;;;;;13.48;3.10;;;15.30;99.90;;;;;;5068604;28;20033;-41
2023/10/04 07:52:37;;;;;;;14.65;3.10;;;15.30;99.90;;;;;;5052296;28;20037;-41
2023/10/04 07:55:05;;;;;;;;;;;15.40;99.90;;;;;;5059790;28;20082;-39
2023/10/04 07:57:31;;;;;;;13.70;2.90;;;15.40;99.90;;;;;;5077246;28;20357;-42
2023/10/04 07:59:57;;;;;;;11.40;2.55;;;15.50;99.90;;;;;;5068410;28;20025;-48
2023/10/04 08:02:23;;;;;;;14.82;2.70;;;15.50;99.90;;;;;;5065104;28;20021;-42
2023/10/04 08:04:49;;;;;;;7.97;2.30;;;15.50;99.90;;;;;;5076522;28;20027;-39
2023/10/04 08:07:18;;;;;;;6.82;2.42;;;15.60;99.90;;;;;;5062006;28;20096;-42
2023/10/04 08:09:44;;;;;;;5.43;2.22;;;15.60;99.90;;;;;;5058816;28;20470;-42
2023/10/04 08:12:10;;;;;;;7.75;2.72;;;15.70;99.90;;;;;;5056316;28;20033;-43
2023/10/04 08:14:35;;;;;;;8.32;2.53;;;15.70;99.90;;;;;;5056028;28;20037;-38
2023/10/04 08:17:01;;;;;;;12.10;2.85;;;15.80;99.90;;;;;;5056259;28;20022;-41
2023/10/04 08:19:27;;;;;;;9.80;2.70;;;15.80;99.90;;;;;;5069867;28;20016;-43
2023/10/04 08:21:53;;;;;;;12.63;2.72;;;15.80;99.90;;;;;;5076159;28;20073;-42
2023/10/04 08:24:20;;;;;;;10.02;2.67;;;15.90;99.90;;;;;;5056696;28;20043;-42
2023/10/04 08:26:48;;;;;;;9.77;2.97;;;15.90;99.90;;;;;;5056466;28;20025;-40
2023/10/04 08:29:14;;;;;;;10.65;2.88;;;16.00;99.90;;;;;;5056747;28;20036;-43
2023/10/04 08:31:40;;;;;;;9.45;2.83;;;16.00;99.90;;;;;;5064254;28;20493;-43
2023/10/04 08:34:06;;;;;;;11.25;2.67;;;16.10;99.90;;;;;;5075544;28;20024;-36
2023/10/04 08:36:33;;;;;;;13.40;2.85;;;16.20;99.90;;;;;;5074287;28;20031;-45
2023/10/04 08:39:00;;;;;;;7.40;2.30;;;16.30;99.90;;;;;;5063134;28;20028;-43
2023/10/04 08:41:27;;;;;;;12.70;2.50;;;16.40;99.90;;;;;;5068771;28;20055;-44
2023/10/04 08:43:53;;;;;;;7.85;1.85;;;16.40;99.90;;;;;;5059680;28;20032;-44
2023/10/04 08:46:20;;;;;;;10.32;2.67;;;16.50;99.90;;;;;;5074810;28;20028;-44
2023/10/04 08:48:53;;;;;;;9.13;2.63;;;16.50;99.90;;;;;;5069467;28;20032;-47
2023/10/04 08:51:46;;;;;;;11.00;2.22;;;16.60;99.90;;;;;;5055635;28;20478;-37
2023/10/04 08:54:22;;;;;;;9.95;2.10;;;16.60;99.90;;;;;;5055715;28;20497;-42
2023/10/04 08:57:21;;;;;;;10.30;2.72;;;16.70;99.90;;;;;;5056329;28;20474;-42
2023/10/04 08:59:49;;;;;;;4.15;2.00;;;16.70;99.90;;;;;;5044810;28;20063;-40
2023/10/04 09:02:15;;;;;;;6.00;2.20;;;16.70;99.90;;;;;;5062714;28;20021;-40
2023/10/04 09:04:42;;;;;;;7.68;2.15;;;16.70;99.90;;;;;;5075736;28;20017;-40
2023/10/04 09:07:10;;;;;;;6.15;2.38;;;16.70;99.90;;;;;;5061574;28;20115;-42
2023/10/04 09:09:39;;;;;;;12.82;3.05;;;16.70;99.90;;;;;;5054069;28;20028;-38
2023/10/04 09:12:08;;;;;;;11.13;2.08;;;16.80;99.90;;;;;;5055524;28;20048;-46
2023/10/04 09:14:40;;;;;;;7.95;2.13;;;16.80;99.90;;;;;;5067424;28;20040;-42
2023/10/04 09:17:06;;;;;;;10.60;2.25;;;16.90;99.90;;;;;;5074304;28;20021;-42
2023/10/04 09:19:33;;;;;;;10.37;2.57;;;16.90;99.90;;;;;;5060211;28;20013;-45
2023/10/04 09:22:05;;;;;;;7.57;1.77;;;17.00;99.90;;;;;;5055362;28;20256;-54
2023/10/04 09:24:31;;;;;;;8.82;2.15;;;17.10;99.90;;;;;;5054685;28;20029;-54
2023/10/04 09:26:57;;;;;;;8.73;2.70;;;17.10;99.90;;;;;;5054680;28;20094;-51
2023/10/04 09:29:43;;;;;;;13.57;2.40;;;17.10;99.90;;;;;;5054926;28;20500;-54
2023/10/04 09:32:09;;;;;;;13.68;3.42;;;17.00;99.90;;;;;;5072044;28;20032;-55
2023/10/04 09:34:35;;;;;;;7.18;2.72;;;16.90;99.90;;;;;;5073882;28;20389;-53
2023/10/04 09:37:00;;;;;;;8.82;2.17;;;16.80;99.90;;;;;;5074812;28;20027;-53
2023/10/04 09:39:28;;;;;;;7.80;2.00;;;16.80;99.90;;;;;;5074697;28;20020;-55
2023/10/04 09:41:56;;;;;;;7.20;1.95;;;16.70;99.90;;;;;;5074675;28;20033;-54
2023/10/04 09:44:26;;;;;;;6.00;1.67;;;16.70;99.90;;;;;;5074630;28;20504;-55
2023/10/04 09:47:00;;;;;;;13.45;2.60;;;16.70;99.90;;;;;;5074562;28;20481;-55
2023/10/04 09:49:28;;;;;;;7.65;2.65;;;16.70;99.90;;;;;;5074329;28;20028;-54
2023/10/04 09:51:55;;;;;;;8.40;3.03;;;16.80;99.90;;;;;;5072342;28;20477;-54
2023/10/04 09:54:22;;;;;;;8.02;2.08;;;16.80;99.90;;;;;;5073685;28;20420;-51
2023/10/04 09:56:49;;;;;;;16.67;2.83;;;16.90;99.90;;;;;;5061276;28;20020;-53
2023/10/04 09:59:19;;;;;;;9.73;3.07;;;16.90;99.90;;;;;;5074348;28;20021;-55
2023/10/04 10:01:54;;;;;;;17.00;2.42;;;17.00;99.90;;;;;;5074578;28;20135;-55
2023/10/04 10:04:29;;;;;;;8.10;2.33;;;17.10;99.90;;;;;;5073645;28;20017;-54
2023/10/04 10:07:11;;;;;;;9.27;2.95;;;17.20;99.90;;;;;;5073334;28;20032;-54
2023/10/04 10:10:04;;;;;;;7.85;2.13;;;17.30;99.90;;;;;;5074116;28;20021;-53
2023/10/04 10:12:31;;;;;;;10.85;2.42;;;17.30;99.90;;;;;;5074124;28;20033;-52
2023/10/04 10:15:00;;;;;;;10.25;2.28;;;17.30;99.90;;;;;;5073947;28;20194;-51
2023/10/04 10:17:27;;;;;;;11.07;2.80;;;17.40;99.90;;;;;;5071013;28;20103;-54
2023/10/04 10:19:55;;;;;;;19.52;3.10;;;17.40;99.90;;;;;;5072211;28;20071;-55
2023/10/04 10:22:21;;;;;;;8.65;2.42;;;17.50;99.90;;;;;;5073053;28;20100;-54
2023/10/04 10:24:56;;;;;;;12.10;1.65;;;17.60;99.90;;;;;;5073138;28;20549;-54
2023/10/04 10:27:23;;;;;;;7.70;2.03;;;17.70;99.90;;;;;;5073659;28;20044;-55
2023/10/04 10:29:50;;;;;;;5.80;2.92;;;17.80;99.90;;;;;;5073792;28;20557;-54
2023/10/04 10:32:22;;;;;;;9.27;2.40;;;17.80;99.90;;;;;;5073620;28;20054;-54
2023/10/04 10:34:50;;;;;;;9.25;2.67;;;17.90;99.90;;;;;;5073524;28;20028;-55
2023/10/04 10:37:19;;;;;;;9.93;2.28;;;18.00;99.90;;;;;;5073560;28;20056;-52
2023/10/04 10:39:52;;;;;;;8.55;2.10;;;18.10;99.90;;;;;;5072455;28;20024;-55
2023/10/04 10:42:18;;;;;;;7.15;2.33;;;18.20;99.90;;;;;;5072846;28;20024;-55
2023/10/04 10:44:45;;;;;;;11.57;1.88;;;18.30;99.90;;;;;;5073688;28;20573;-53
2023/10/04 10:47:18;;;;;;;7.55;2.15;;;18.30;99.90;;;;;;5073577;28;20020;-52
2023/10/04 10:49:57;;;;;;;11.45;2.10;;;18.30;99.90;;;;;;5073579;28;20032;-54
2023/10/04 10:52:41;;;;;;;8.48;2.08;;;18.10;99.90;;;;;;5073364;28;20024;-54
2023/10/04 10:55:14;;;;;;;7.20;2.50;;;17.90;99.90;;;;;;5072580;28;20103;-51
2023/10/04 10:57:43;;;;;;;16.40;2.33;;;17.70;99.90;;;;;;5073074;28;20033;-54
2023/10/04 11:00:56;;;;;;;8.27;2.72;;;17.50;99.90;;;;;;5058598;28;20025;-54
2023/10/04 11:02:55;;;;;;;9.60;2.53;;;17.40;99.90;;;;;;5049143;28;20043;-54
2023/10/04 11:05:22;;;;;;;4.93;2.45;;;17.30;99.90;;;;;;5062212;28;20108;-54
2023/10/04 11:07:48;;;;;;;10.85;2.75;;;17.30;99.90;;;;;;5073346;28;20029;-54
2023/10/04 11:10:16;;;;;;;9.63;2.45;;;17.20;99.90;;;;;;5071908;28;20404;-53
2023/10/04 11:12:43;;;;;;;5.40;2.05;;;17.20;99.90;;;;;;5062929;28;20051;-54
2023/10/04 11:15:09;;;;;;;7.97;1.90;;;17.30;99.90;;;;;;5059265;28;20036;-53
2023/10/04 11:17:36;;;;;;;7.93;2.75;;;17.40;99.90;;;;;;5067036;28;20032;-55
2023/10/04 11:20:09;;;;;;;6.53;2.30;;;17.50;99.90;;;;;;5058973;28;20424;-52
2023/10/04 11:22:45;;;;;;;9.02;2.03;;;17.60;99.90;;;;;;5066524;28;20024;-54
2023/10/04 11:25:13;;;;;;;8.88;2.17;;;17.80;99.90;;;;;;5064947;28;20120;-53
2023/10/04 11:27:43;;;;;;;6.53;3.15;;;17.90;99.90;;;;;;5064716;28;20031;-54
2023/10/04 11:30:11;;;;;;;3.38;1.73;;;18.00;99.90;;;;;;5060857;28;20035;-51
2023/10/04 11:32:50;;;;;;;7.47;2.50;;;18.10;99.90;;;;;;5066026;28;20027;-53
2023/10/04 11:35:18;;;;;;;8.85;2.72;;;18.20;99.90;;;;;;5070059;28;20024;-53
2023/10/04 11:37:44;;;;;;;10.75;2.83;;;18.20;99.90;;;;;;5052696;28;20060;-54
2023/10/04 11:40:12;;;;;;;7.47;1.98;;;18.20;99.90;;;;;;5052760;28;20017;-53
2023/10/04 11:42:39;;;;;;;11.05;2.08;;;18.20;99.90;;;;;;5052622;28;20029;-54
2023/10/04 11:45:23;;;;;;;9.32;2.65;;;18.30;99.90;;;;;;5052697;28;20482;-52
2023/10/04 11:48:00;;;;;;;12.50;2.60;;;18.20;99.90;;;;;;5061397;28;20365;-54
2023/10/04 11:50:42;;;;;;;5.45;2.10;;;18.20;99.90;;;;;;5053471;28;20025;-53
2023/10/04 11:53:08;;;;;;;9.73;2.42;;;18.20;99.90;;;;;;5051365;28;20494;-54
2023/10/04 11:55:37;;;;;;;6.60;2.05;;;18.20;99.90;;;;;;5057366;28;20013;-52
2023/10/04 11:58:04;;;;;;;11.05;1.77;;;18.10;99.90;;;;;;5072765;28;20031;-52
2023/10/04 12:00:30;;;;;;;10.93;2.10;;;18.10;99.90;;;;;;5072677;28;20116;-55
2023/10/04 12:02:56;;;;;;;6.25;2.00;;;18.00;99.90;;;;;;5072762;28;20434;-53
2023/10/04 12:05:21;;;;;;;9.23;2.08;;;18.10;99.90;;;;;;5071639;28;20111;-54
2023/10/04 12:07:47;;;;;;;8.02;2.20;;;18.00;99.90;;;;;;5071633;28;20037;-54
2023/10/04 12:10:13;;;;;;;7.43;2.42;;;18.10;99.90;;;;;;5072443;28;20392;-55
2023/10/04 12:12:40;;;;;;;7.57;2.60;;;18.10;99.90;;;;;;5072301;28;20025;-54
2023/10/04 12:15:07;;;;;;;7.00;1.63;;;18.00;99.90;;;;;;5072255;28;20050;-54
2023/10/04 12:17:34;;;;;;;4.17;1.73;;;17.90;99.90;;;;;;5072434;28;20085;-53
2023/10/04 12:20:04;;;;;;;3.42;1.75;;;17.80;99.90;;;;;;5071813;28;20259;-53
2023/10/04 12:22:30;;;;;;;8.25;2.20;;;17.70;99.90;;;;;;5052488;28;20021;-54
2023/10/04 12:24:55;;;;;;;9.05;2.25;;;17.70;99.90;;;;;;5052490;28;20024;-53
2023/10/04 12:27:23;;;;;;;5.80;2.33;;;17.70;99.90;;;;;;5064980;28;20028;-54
2023/10/04 12:29:48;;;;;;;10.63;3.55;;;17.60;99.90;;;;;;5069452;28;20729;-52
2023/10/04 12:32:15;;;;;;;4.30;1.90;;;17.60;99.90;;;;;;5058554;28;20028;-53
2023/10/04 12:34:40;;;;;;;10.38;1.92;;;17.60;99.90;;;;;;5066575;28;20025;-53
2023/10/04 12:37:06;;;;;;;7.88;2.42;;;17.70;99.90;;;;;;5071254;28;20028;-54
2023/10/04 12:39:32;;;;;;;7.00;1.45;;;17.70;99.90;;;;;;5052408;28;20092;-56
2023/10/04 12:42:01;;;;;;;16.00;2.38;;;17.80;99.90;;;;;;5055050;28;20049;-55
2023/10/04 12:44:27;;;;;;;5.43;1.67;;;17.90;99.90;;;;;;5055958;28;20611;-54
2023/10/04 12:46:53;;;;;;;5.93;1.90;;;17.80;99.90;;;;;;5055607;28;20029;-52
2023/10/04 12:49:18;;;;;;;6.25;2.00;;;17.80;99.90;;;;;;5055714;28;20013;-54
2023/10/04 12:51:48;;;;;;;8.18;1.85;;;17.80;99.90;;;;;;5055832;28;20021;-54
2023/10/04 12:54:16;;;;;;;3.60;1.67;;;17.90;99.90;;;;;;5055690;28;20051;-54
2023/10/04 12:56:42;;;;;;;10.25;1.50;;;17.90;99.90;;;;;;5069468;28;20023;-54
2023/10/04 12:59:10;;;;;;;5.20;1.52;;;17.90;99.90;;;;;;5055566;28;20456;-53
2023/10/04 13:01:35;;;;;;;9.73;1.35;;;18.00;99.90;;;;;;5055735;28;20017;-54